Archival Weather

Fukuoka

Fukuoka, Japan (RJFF)

Report from: Tuesday, August 16, 2022 10:30 PM JST
Current time: Sunday, November 27, 2022 5:24 PM JST

Current weather
Weather history
Weather forecast

Temperature27.0°C (80.6°F)
Heat index31.1°C (87.9°F)
Dew point26.0°C (78.8°F)
Winds 4 kts (2.1 m/s, 4.6 mph) Vrb
Winds variableWinds variable from East (90°) to South-Southeast (160°)
Visibility6.2 mi. (10 km)
Clouds Few clouds 800 ft. (244 m)
Scattered clouds 4,500 ft. (1,372 m)
Ceiling: Broken clouds 6,000 ft. (1,829 m)
Altimeter29.77 in.Hg (1008 mB)
Relative humidity94 %
Density altitude2,008 ft. (612 m)
Remarks No significant changes expected in the next two hours
Flight conditions Visual Meteorological Conditions
Raw dataRJFF 161330Z 12004KT 090V160 9999 FEW008 SCT045 BKN060 27/26 Q1008 NOSIG
An error has occurred. This application may no longer respond until reloaded. Reload 🗙